Folsom, NM (88419)

6:30 PM MDT on May 29, 2015 (GMT -0600)
Baca Valley | | Change Station
CLOSE
Current Station
Personal Weather Station
Location: Des Moines, NM
Elevation: 6645 ft
Nearby Weather Stations

Elev 6645 ft 36.76 °N, 103.83 °W | Updated 4 minutes ago

Overcast
Overcast
57.0 °F
Feels Like 57.0 °F
N
18.0
Wind Variable Wind from East
Gusts 27.0 mph

Today
High -- | Low -- °F
--% Chance of Precip.
Yesterday
High -- | Low -- °F
Precip. -- in
5:38 AM 8:06 PM
Waxing Gibbous, 87% visible
Pressure 30.18 in
Visibility 2.5 miles
Clouds Few 2900 ft
Overcast 5500 ft
Dew Point 50 °F
Humidity 76%
Rainfall -999.00 in
Snow Depth Not available.
UV 0 out of 12
Pollen 6.70 out of 12
Air Quality Not available.
Flu Activity Sporadic
SPECI KTAD 300019Z AUTO 06011KT 2 1/2SM +TSRA FEW029 OVC055 15/09 A3018 RMK AO2 LTG DSNT ALQDS RAB11 TSB18 PRESRR P0009 T01500094

More Conditions Fewer Conditions

Pressure 30.18 in
Visibility 2.5 miles
Clouds Few 2900 ft
Overcast 5500 ft
Dew Point 50 °F
Humidity 76%
Rainfall -999.00 in
Snow Depth Not available.
UV 0 out of 12
Pollen 6.70 out of 12
Air Quality Not available.
Flu Activity Sporadic
SPECI KTAD 300019Z AUTO 06011KT 2 1/2SM +TSRA FEW029 OVC055 15/09 A3018 RMK AO2 LTG DSNT ALQDS RAB11 TSB18 PRESRR P0009 T01500094

More Conditions Fewer Conditions

10-Day Weather Forecast

Almanac

Astronomy

May. 29, 2015 Rise Set
Actual Time
Civil Twilight
Nautical Twilight
Astronomical Twilight
Moon
Length of Visible Light
Length of Day
Tomorrow will be .
, % of the Moon is Illuminated

Today's Extremes

State Highs State Lows

Community

WunderPhotos

Upload Photos

1,825,411 photos uploaded!

WunderBlogs® & News

Nearby

Air Quality

  Air Quality AQ Index Pollutant
Not available.

Snow Depth

Station Depth Elevation

Earthquake Activity

City Distance Mag. Time & Date
Minimum magnitude displayed is 2.5.

Coastal Water Temperatures

Place Temperature

Stations

Nearby Weather Stations

Station Location Temp. Windchill Dew Point Humidity Wind Precip. Elev Updated Type
                   
Severe Thunderstorm Warning
Statement as of 4:44 PM MDT on May 29, 2015

... The Severe Thunderstorm Warning for west central Union and north
central Harding counties is cancelled...

the storm which prompted the warning has weakened below severe
limits... and no longer pose an immediate threat to life or property.
Therefore the warning has been cancelled. However gusty winds
and small hail are still possible with this thunderstorm.

A Severe Thunderstorm Watch remains in effect until 1000 PM MDT for
northeastern New Mexico.

Lat... Lon 3605 10407 3622 10411 3622 10401 3639 10401
      3642 10387 3623 10362
time... Mot... loc 2238z 324deg 15kt 3615 10388


50



Severe Thunderstorm Watch
Statement as of 7:24 PM CDT on May 29, 2015

Severe Thunderstorm Watch 240 remains in effect until 1100 PM CDT
for the following locations


Nm
. New Mexico counties included are

Curry De Baca Guadalupe
Harding Quay Roosevelt
San Miguel Union